sensor_id;sensor_type;location;lat;lon;timestamp;temperature;humidity
3312;DHT22;1668;49.648;8.570;2023-08-08T00:01:56;14.80;99.90
3312;DHT22;1668;49.648;8.570;2023-08-08T00:04:23;14.80;99.90
3312;DHT22;1668;49.648;8.570;2023-08-08T00:06:49;14.80;99.90
3312;DHT22;1668;49.648;8.570;2023-08-08T00:09:16;14.70;99.90
3312;DHT22;1668;49.648;8.570;2023-08-08T00:11:43;14.70;99.90
3312;DHT22;1668;49.648;8.570;2023-08-08T00:14:11;14.70;99.90
3312;DHT22;1668;49.648;8.570;2023-08-08T00:16:38;14.70;99.90
3312;DHT22;1668;49.648;8.570;2023-08-08T00:19:05;14.60;99.90
3312;DHT22;1668;49.648;8.570;2023-08-08T00:21:32;14.60;99.90
3312;DHT22;1668;49.648;8.570;2023-08-08T00:23:59;14.60;99.90
3312;DHT22;1668;49.648;8.570;2023-08-08T00:26:26;14.60;99.90
3312;DHT22;1668;49.648;8.570;2023-08-08T00:28:52;14.50;99.90
3312;DHT22;1668;49.648;8.570;2023-08-08T00:31:21;14.50;99.90
3312;DHT22;1668;49.648;8.570;2023-08-08T00:33:47;14.50;99.90
3312;DHT22;1668;49.648;8.570;2023-08-08T00:36:14;14.40;99.90
3312;DHT22;1668;49.648;8.570;2023-08-08T00:38:41;14.40;99.90
3312;DHT22;1668;49.648;8.570;2023-08-08T00:41:08;14.40;99.90
3312;DHT22;1668;49.648;8.570;2023-08-08T00:43:35;14.40;1.00
3312;DHT22;1668;49.648;8.570;2023-08-08T00:46:02;14.30;1.00
3312;DHT22;1668;49.648;8.570;2023-08-08T00:48:31;14.30;1.00
3312;DHT22;1668;49.648;8.570;2023-08-08T00:50:59;14.30;1.00
3312;DHT22;1668;49.648;8.570;2023-08-08T00:53:26;14.30;1.00
3312;DHT22;1668;49.648;8.570;2023-08-08T00:55:56;14.20;1.00
3312;DHT22;1668;49.648;8.570;2023-08-08T00:58:24;14.20;1.00
3312;DHT22;1668;49.648;8.570;2023-08-08T01:00:52;14.20;1.00
3312;DHT22;1668;49.648;8.570;2023-08-08T01:03:20;14.20;1.00
3312;DHT22;1668;49.648;8.570;2023-08-08T01:05:56;14.10;1.00
3312;DHT22;1668;49.648;8.570;2023-08-08T01:08:32;14.10;1.00
3312;DHT22;1668;49.648;8.570;2023-08-08T01:11:00;14.10;1.00
3312;DHT22;1668;49.648;8.570;2023-08-08T01:13:28;14.10;1.00
3312;DHT22;1668;49.648;8.570;2023-08-08T01:15:57;14.10;1.00
3312;DHT22;1668;49.648;8.570;2023-08-08T01:18:25;14.00;1.00
3312;DHT22;1668;49.648;8.570;2023-08-08T01:20:54;14.00;1.00
3312;DHT22;1668;49.648;8.570;2023-08-08T01:23:26;13.90;1.00
3312;DHT22;1668;49.648;8.570;2023-08-08T01:25:56;13.90;1.00
3312;DHT22;1668;49.648;8.570;2023-08-08T01:28:24;13.90;1.00
3312;DHT22;1668;49.648;8.570;2023-08-08T01:30:52;13.90;1.00
3312;DHT22;1668;49.648;8.570;2023-08-08T01:33:19;13.90;1.00
3312;DHT22;1668;49.648;8.570;2023-08-08T01:35:50;13.80;1.00
3312;DHT22;1668;49.648;8.570;2023-08-08T01:38:20;13.80;1.00
3312;DHT22;1668;49.648;8.570;2023-08-08T01:40:47;13.80;1.00
3312;DHT22;1668;49.648;8.570;2023-08-08T01:43:16;13.80;1.00
3312;DHT22;1668;49.648;8.570;2023-08-08T01:45:44;13.80;1.00
3312;DHT22;1668;49.648;8.570;2023-08-08T01:48:11;13.80;1.00
3312;DHT22;1668;49.648;8.570;2023-08-08T01:50:38;13.80;1.00
3312;DHT22;1668;49.648;8.570;2023-08-08T01:53:05;13.70;1.00
3312;DHT22;1668;49.648;8.570;2023-08-08T01:55:32;13.70;1.00
3312;DHT22;1668;49.648;8.570;2023-08-08T01:57:59;13.70;1.00
3312;DHT22;1668;49.648;8.570;2023-08-08T02:00:27;13.70;1.00
3312;DHT22;1668;49.648;8.570;2023-08-08T02:02:54;13.60;1.00
3312;DHT22;1668;49.648;8.570;2023-08-08T02:05:21;13.60;1.00
3312;DHT22;1668;49.648;8.570;2023-08-08T02:07:48;13.60;1.00
3312;DHT22;1668;49.648;8.570;2023-08-08T02:10:15;13.60;1.00
3312;DHT22;1668;49.648;8.570;2023-08-08T02:12:41;13.60;1.00
3312;DHT22;1668;49.648;8.570;2023-08-08T02:15:08;13.60;1.00
3312;DHT22;1668;49.648;8.570;2023-08-08T02:17:38;13.60;1.00
3312;DHT22;1668;49.648;8.570;2023-08-08T02:20:07;13.50;1.00
3312;DHT22;1668;49.648;8.570;2023-08-08T02:22:34;13.50;1.00
3312;DHT22;1668;49.648;8.570;2023-08-08T02:25:00;13.50;1.00
3312;DHT22;1668;49.648;8.570;2023-08-08T02:27:27;13.50;1.00
3312;DHT22;1668;49.648;8.570;2023-08-08T02:29:54;13.50;1.00
3312;DHT22;1668;49.648;8.570;2023-08-08T02:32:23;13.40;1.00
3312;DHT22;1668;49.648;8.570;2023-08-08T02:34:51;13.40;1.00
3312;DHT22;1668;49.648;8.570;2023-08-08T02:37:18;13.40;46.00
3312;DHT22;1668;49.648;8.570;2023-08-08T02:39:45;13.30;73.80
3312;DHT22;1668;49.648;8.570;2023-08-08T02:42:11;13.30;85.40
3312;DHT22;1668;49.648;8.570;2023-08-08T02:44:38;13.30;90.80
3312;DHT22;1668;49.648;8.570;2023-08-08T02:47:05;13.30;85.30
3312;DHT22;1668;49.648;8.570;2023-08-08T02:49:32;13.30;77.60
3312;DHT22;1668;49.648;8.570;2023-08-08T02:52:01;13.20;90.50
3312;DHT22;1668;49.648;8.570;2023-08-08T02:54:28;13.20;26.70
3312;DHT22;1668;49.648;8.570;2023-08-08T02:56:55;13.20;4.10
3312;DHT22;1668;49.648;8.570;2023-08-08T02:59:22;13.20;98.30
3312;DHT22;1668;49.648;8.570;2023-08-08T03:01:48;13.10;99.90
3312;DHT22;1668;49.648;8.570;2023-08-08T03:04:15;13.10;99.90
3312;DHT22;1668;49.648;8.570;2023-08-08T03:06:42;13.10;99.90
3312;DHT22;1668;49.648;8.570;2023-08-08T03:09:10;13.00;99.90
3312;DHT22;1668;49.648;8.570;2023-08-08T03:11:37;13.00;99.90
3312;DHT22;1668;49.648;8.570;2023-08-08T03:14:07;12.90;99.90
3312;DHT22;1668;49.648;8.570;2023-08-08T03:16:34;12.90;99.90
3312;DHT22;1668;49.648;8.570;2023-08-08T03:19:00;12.90;99.90
3312;DHT22;1668;49.648;8.570;2023-08-08T03:21:27;12.80;99.90
3312;DHT22;1668;49.648;8.570;2023-08-08T03:23:54;12.80;99.90
3312;DHT22;1668;49.648;8.570;2023-08-08T03:26:22;12.80;99.90
3312;DHT22;1668;49.648;8.570;2023-08-08T03:28:49;12.80;99.90
3312;DHT22;1668;49.648;8.570;2023-08-08T03:31:19;12.80;99.90
3312;DHT22;1668;49.648;8.570;2023-08-08T03:33:46;12.80;99.90
3312;DHT22;1668;49.648;8.570;2023-08-08T03:36:13;12.80;99.90
3312;DHT22;1668;49.648;8.570;2023-08-08T03:38:40;12.70;99.90
3312;DHT22;1668;49.648;8.570;2023-08-08T03:41:10;12.70;99.90
3312;DHT22;1668;49.648;8.570;2023-08-08T03:43:38;12.70;99.90
3312;DHT22;1668;49.648;8.570;2023-08-08T03:46:05;12.70;99.90
3312;DHT22;1668;49.648;8.570;2023-08-08T03:48:31;12.70;99.90
3312;DHT22;1668;49.648;8.570;2023-08-08T03:50:58;12.70;99.90
3312;DHT22;1668;49.648;8.570;2023-08-08T03:53:25;12.70;99.90
3312;DHT22;1668;49.648;8.570;2023-08-08T03:55:52;12.60;99.90
3312;DHT22;1668;49.648;8.570;2023-08-08T03:58:19;12.60;99.90
3312;DHT22;1668;49.648;8.570;2023-08-08T04:00:47;12.60;99.90
3312;DHT22;1668;49.648;8.570;2023-08-08T04:03:14;12.60;99.90
3312;DHT22;1668;49.648;8.570;2023-08-08T04:05:44;12.60;99.90
3312;DHT22;1668;49.648;8.570;2023-08-08T04:08:12;12.60;99.90
3312;DHT22;1668;49.648;8.570;2023-08-08T04:10:39;12.50;99.90
3312;DHT22;1668;49.648;8.570;2023-08-08T04:13:06;12.50;99.90
3312;DHT22;1668;49.648;8.570;2023-08-08T04:15:32;12.50;99.90
3312;DHT22;1668;49.648;8.570;2023-08-08T04:18:01;12.50;99.90
3312;DHT22;1668;49.648;8.570;2023-08-08T04:20:27;12.50;99.90
3312;DHT22;1668;49.648;8.570;2023-08-08T04:22:54;12.50;99.90
3312;DHT22;1668;49.648;8.570;2023-08-08T04:25:21;12.40;99.90
3312;DHT22;1668;49.648;8.570;2023-08-08T04:27:48;12.50;99.90
3312;DHT22;1668;49.648;8.570;2023-08-08T04:30:15;12.40;99.90
3312;DHT22;1668;49.648;8.570;2023-08-08T04:32:42;12.40;99.90
3312;DHT22;1668;49.648;8.570;2023-08-08T04:35:10;12.40;99.90
3312;DHT22;1668;49.648;8.570;2023-08-08T04:37:37;12.40;99.90
3312;DHT22;1668;49.648;8.570;2023-08-08T04:40:05;12.40;99.90
3312;DHT22;1668;49.648;8.570;2023-08-08T04:42:34;12.40;99.90
3312;DHT22;1668;49.648;8.570;2023-08-08T04:45:00;12.40;99.90
3312;DHT22;1668;49.648;8.570;2023-08-08T04:47:28;12.40;99.90
3312;DHT22;1668;49.648;8.570;2023-08-08T04:49:55;12.40;99.90
3312;DHT22;1668;49.648;8.570;2023-08-08T04:52:23;12.40;99.90
3312;DHT22;1668;49.648;8.570;2023-08-08T04:54:50;12.40;99.90
3312;DHT22;1668;49.648;8.570;2023-08-08T04:57:16;12.40;99.90
3312;DHT22;1668;49.648;8.570;2023-08-08T04:59:43;12.40;99.90
3312;DHT22;1668;49.648;8.570;2023-08-08T05:02:10;12.40;99.90
3312;DHT22;1668;49.648;8.570;2023-08-08T05:04:37;12.40;99.90
3312;DHT22;1668;49.648;8.570;2023-08-08T05:07:04;12.40;99.90
3312;DHT22;1668;49.648;8.570;2023-08-08T05:09:33;12.40;99.90
3312;DHT22;1668;49.648;8.570;2023-08-08T05:11:59;12.40;99.90
3312;DHT22;1668;49.648;8.570;2023-08-08T05:14:26;12.40;99.90
3312;DHT22;1668;49.648;8.570;2023-08-08T05:16:53;12.40;99.90
3312;DHT22;1668;49.648;8.570;2023-08-08T05:19:20;12.40;99.90
3312;DHT22;1668;49.648;8.570;2023-08-08T05:21:47;12.40;99.90
3312;DHT22;1668;49.648;8.570;2023-08-08T05:24:14;12.40;99.90
3312;DHT22;1668;49.648;8.570;2023-08-08T05:26:42;12.50;99.90
3312;DHT22;1668;49.648;8.570;2023-08-08T05:29:08;12.50;99.90
3312;DHT22;1668;49.648;8.570;2023-08-08T05:31:35;12.50;99.90
3312;DHT22;1668;49.648;8.570;2023-08-08T05:34:02;12.50;99.90
3312;DHT22;1668;49.648;8.570;2023-08-08T05:36:29;12.60;99.90
3312;DHT22;1668;49.648;8.570;2023-08-08T05:38:56;12.60;99.90
3312;DHT22;1668;49.648;8.570;2023-08-08T05:41:23;12.60;99.90
3312;DHT22;1668;49.648;8.570;2023-08-08T05:43:51;12.70;99.90
3312;DHT22;1668;49.648;8.570;2023-08-08T05:46:18;12.70;99.90
3312;DHT22;1668;49.648;8.570;2023-08-08T05:48:45;12.80;99.90
3312;DHT22;1668;49.648;8.570;2023-08-08T05:51:12;12.80;99.90
3312;DHT22;1668;49.648;8.570;2023-08-08T05:53:39;12.90;99.90
3312;DHT22;1668;49.648;8.570;2023-08-08T05:56:06;12.90;99.90
3312;DHT22;1668;49.648;8.570;2023-08-08T05:58:34;13.00;99.90
3312;DHT22;1668;49.648;8.570;2023-08-08T06:01:03;13.00;99.90
3312;DHT22;1668;49.648;8.570;2023-08-08T06:03:34;13.10;99.90
3312;DHT22;1668;49.648;8.570;2023-08-08T06:06:03;13.10;99.90
3312;DHT22;1668;49.648;8.570;2023-08-08T06:08:30;13.20;99.90
3312;DHT22;1668;49.648;8.570;2023-08-08T06:10:57;13.30;99.90
3312;DHT22;1668;49.648;8.570;2023-08-08T06:13:24;13.30;99.90
3312;DHT22;1668;49.648;8.570;2023-08-08T06:15:51;13.40;99.90
3312;DHT22;1668;49.648;8.570;2023-08-08T06:18:19;13.40;99.90
3312;DHT22;1668;49.648;8.570;2023-08-08T06:20:46;13.50;99.90
3312;DHT22;1668;49.648;8.570;2023-08-08T06:23:13;13.50;99.90
3312;DHT22;1668;49.648;8.570;2023-08-08T06:25:40;13.60;99.90
3312;DHT22;1668;49.648;8.570;2023-08-08T06:28:07;13.60;99.90
3312;DHT22;1668;49.648;8.570;2023-08-08T06:30:34;13.60;99.90
3312;DHT22;1668;49.648;8.570;2023-08-08T06:33:01;13.70;99.90
3312;DHT22;1668;49.648;8.570;2023-08-08T06:35:30;13.80;99.90
3312;DHT22;1668;49.648;8.570;2023-08-08T06:37:57;13.80;99.90
3312;DHT22;1668;49.648;8.570;2023-08-08T06:40:23;13.90;99.90
3312;DHT22;1668;49.648;8.570;2023-08-08T06:42:50;13.90;99.90
3312;DHT22;1668;49.648;8.570;2023-08-08T06:45:17;14.00;99.90
3312;DHT22;1668;49.648;8.570;2023-08-08T06:47:44;14.00;99.90
3312;DHT22;1668;49.648;8.570;2023-08-08T06:50:11;14.00;99.90
3312;DHT22;1668;49.648;8.570;2023-08-08T06:52:40;14.00;99.90
3312;DHT22;1668;49.648;8.570;2023-08-08T06:55:07;14.00;99.90
3312;DHT22;1668;49.648;8.570;2023-08-08T06:57:35;14.10;99.90
3312;DHT22;1668;49.648;8.570;2023-08-08T07:00:02;14.20;99.90
3312;DHT22;1668;49.648;8.570;2023-08-08T07:02:31;14.20;99.90
3312;DHT22;1668;49.648;8.570;2023-08-08T07:04:58;14.30;99.90
3312;DHT22;1668;49.648;8.570;2023-08-08T07:07:25;14.30;99.90
3312;DHT22;1668;49.648;8.570;2023-08-08T07:09:53;14.40;99.90
3312;DHT22;1668;49.648;8.570;2023-08-08T07:12:20;14.50;99.90
3312;DHT22;1668;49.648;8.570;2023-08-08T07:14:47;14.50;22.60
3312;DHT22;1668;49.648;8.570;2023-08-08T07:17:13;14.60;72.80
3312;DHT22;1668;49.648;8.570;2023-08-08T07:19:40;14.70;15.70
3312;DHT22;1668;49.648;8.570;2023-08-08T07:22:08;14.70;43.10
3312;DHT22;1668;49.648;8.570;2023-08-08T07:24:35;14.80;28.00
3312;DHT22;1668;49.648;8.570;2023-08-08T07:27:05;14.80;24.20
3312;DHT22;1668;49.648;8.570;2023-08-08T07:29:32;14.90;93.20
3312;DHT22;1668;49.648;8.570;2023-08-08T07:32:03;15.00;59.60
3312;DHT22;1668;49.648;8.570;2023-08-08T07:34:30;15.10;88.90
3312;DHT22;1668;49.648;8.570;2023-08-08T07:36:58;15.10;13.10
3312;DHT22;1668;49.648;8.570;2023-08-08T07:39:24;15.20;1.00
3312;DHT22;1668;49.648;8.570;2023-08-08T07:41:52;15.20;1.00
3312;DHT22;1668;49.648;8.570;2023-08-08T07:44:20;15.40;1.00
3312;DHT22;1668;49.648;8.570;2023-08-08T07:46:47;15.50;99.90
3312;DHT22;1668;49.648;8.570;2023-08-08T07:49:14;15.60;99.90
3312;DHT22;1668;49.648;8.570;2023-08-08T07:51:41;15.70;1.00
3312;DHT22;1668;49.648;8.570;2023-08-08T07:54:07;15.80;99.90
3312;DHT22;1668;49.648;8.570;2023-08-08T07:56:36;15.90;91.80
3312;DHT22;1668;49.648;8.570;2023-08-08T07:59:03;16.00;1.00
3312;DHT22;1668;49.648;8.570;2023-08-08T08:01:32;16.10;1.00
3312;DHT22;1668;49.648;8.570;2023-08-08T08:03:59;16.20;99.90
3312;DHT22;1668;49.648;8.570;2023-08-08T08:06:29;16.20;1.00
3312;DHT22;1668;49.648;8.570;2023-08-08T08:08:55;16.20;1.00
3312;DHT22;1668;49.648;8.570;2023-08-08T08:11:22;16.20;1.00
3312;DHT22;1668;49.648;8.570;2023-08-08T08:13:50;16.30;28.30
3312;DHT22;1668;49.648;8.570;2023-08-08T08:16:16;16.30;1.10
3312;DHT22;1668;49.648;8.570;2023-08-08T08:18:45;16.40;99.90
3312;DHT22;1668;49.648;8.570;2023-08-08T08:21:13;16.40;99.90
3312;DHT22;1668;49.648;8.570;2023-08-08T08:23:42;16.50;1.00
3312;DHT22;1668;49.648;8.570;2023-08-08T08:26:09;16.60;1.00
3312;DHT22;1668;49.648;8.570;2023-08-08T08:28:36;16.70;99.90
3312;DHT22;1668;49.648;8.570;2023-08-08T08:31:04;16.70;99.90
3312;DHT22;1668;49.648;8.570;2023-08-08T08:33:31;16.80;99.90
3312;DHT22;1668;49.648;8.570;2023-08-08T08:35:59;16.80;1.00
3312;DHT22;1668;49.648;8.570;2023-08-08T08:38:26;16.90;1.00
3312;DHT22;1668;49.648;8.570;2023-08-08T08:40:54;16.90;1.00
3312;DHT22;1668;49.648;8.570;2023-08-08T08:43:22;17.00;1.00
3312;DHT22;1668;49.648;8.570;2023-08-08T08:45:51;17.00;1.00
3312;DHT22;1668;49.648;8.570;2023-08-08T08:48:18;17.10;1.00
3312;DHT22;1668;49.648;8.570;2023-08-08T08:50:48;17.10;1.00
3312;DHT22;1668;49.648;8.570;2023-08-08T08:53:17;17.20;1.00
3312;DHT22;1668;49.648;8.570;2023-08-08T08:55:44;17.20;99.90
3312;DHT22;1668;49.648;8.570;2023-08-08T08:58:14;17.30;99.90
3312;DHT22;1668;49.648;8.570;2023-08-08T09:00:43;17.30;83.50
3312;DHT22;1668;49.648;8.570;2023-08-08T09:03:11;17.30;99.90
3312;DHT22;1668;49.648;8.570;2023-08-08T09:05:39;17.40;99.90
3312;DHT22;1668;49.648;8.570;2023-08-08T09:08:07;17.40;1.00
3312;DHT22;1668;49.648;8.570;2023-08-08T09:10:36;17.50;1.00
3312;DHT22;1668;49.648;8.570;2023-08-08T09:13:03;17.60;1.00
3312;DHT22;1668;49.648;8.570;2023-08-08T09:15:31;17.60;1.00
3312;DHT22;1668;49.648;8.570;2023-08-08T09:17:58;17.70;1.00
3312;DHT22;1668;49.648;8.570;2023-08-08T09:20:25;17.70;1.00
3312;DHT22;1668;49.648;8.570;2023-08-08T09:22:54;17.70;1.00
3312;DHT22;1668;49.648;8.570;2023-08-08T09:25:21;17.80;1.00
3312;DHT22;1668;49.648;8.570;2023-08-08T09:27:50;17.80;1.00
3312;DHT22;1668;49.648;8.570;2023-08-08T09:30:17;17.90;1.00
3312;DHT22;1668;49.648;8.570;2023-08-08T09:32:44;18.00;1.00
3312;DHT22;1668;49.648;8.570;2023-08-08T09:35:11;18.10;1.00
3312;DHT22;1668;49.648;8.570;2023-08-08T09:37:38;18.10;1.00
3312;DHT22;1668;49.648;8.570;2023-08-08T09:40:06;18.10;1.00
3312;DHT22;1668;49.648;8.570;2023-08-08T09:42:36;18.20;1.00
3312;DHT22;1668;49.648;8.570;2023-08-08T09:45:06;18.30;1.00
3312;DHT22;1668;49.648;8.570;2023-08-08T09:47:34;18.40;1.00
3312;DHT22;1668;49.648;8.570;2023-08-08T09:50:03;18.50;1.00
3312;DHT22;1668;49.648;8.570;2023-08-08T09:52:32;18.60;99.90
3312;DHT22;1668;49.648;8.570;2023-08-08T09:55:00;18.60;99.90
3312;DHT22;1668;49.648;8.570;2023-08-08T09:57:28;18.70;99.90
3312;DHT22;1668;49.648;8.570;2023-08-08T09:59:55;18.80;17.70
3312;DHT22;1668;49.648;8.570;2023-08-08T10:02:24;18.90;99.90
3312;DHT22;1668;49.648;8.570;2023-08-08T10:04:52;19.10;99.90
3312;DHT22;1668;49.648;8.570;2023-08-08T10:07:19;19.10;99.90
3312;DHT22;1668;49.648;8.570;2023-08-08T10:09:46;19.20;99.90
3312;DHT22;1668;49.648;8.570;2023-08-08T10:12:13;19.20;99.90
3312;DHT22;1668;49.648;8.570;2023-08-08T10:14:44;19.30;99.90
3312;DHT22;1668;49.648;8.570;2023-08-08T10:17:13;19.40;99.90
3312;DHT22;1668;49.648;8.570;2023-08-08T10:19:50;19.50;99.90
3312;DHT22;1668;49.648;8.570;2023-08-08T10:22:21;19.60;1.00
3312;DHT22;1668;49.648;8.570;2023-08-08T10:24:48;19.60;99.90
3312;DHT22;1668;49.648;8.570;2023-08-08T10:27:27;19.70;1.00
3312;DHT22;1668;49.648;8.570;2023-08-08T10:30:00;19.60;1.00
3312;DHT22;1668;49.648;8.570;2023-08-08T10:32:27;19.60;1.00
3312;DHT22;1668;49.648;8.570;2023-08-08T10:34:55;19.60;1.00
3312;DHT22;1668;49.648;8.570;2023-08-08T10:37:26;19.60;1.00
3312;DHT22;1668;49.648;8.570;2023-08-08T10:39:53;19.70;1.00
3312;DHT22;1668;49.648;8.570;2023-08-08T10:42:22;19.80;1.00
3312;DHT22;1668;49.648;8.570;2023-08-08T10:44:52;19.80;99.90
3312;DHT22;1668;49.648;8.570;2023-08-08T10:47:22;19.90;99.90
3312;DHT22;1668;49.648;8.570;2023-08-08T10:49:58;20.00;1.00
3312;DHT22;1668;49.648;8.570;2023-08-08T10:52:25;20.10;1.00
3312;DHT22;1668;49.648;8.570;2023-08-08T10:54:53;20.10;1.00
3312;DHT22;1668;49.648;8.570;2023-08-08T10:57:20;20.00;1.00
3312;DHT22;1668;49.648;8.570;2023-08-08T10:59:51;20.10;1.00
3312;DHT22;1668;49.648;8.570;2023-08-08T11:02:19;20.20;99.90
3312;DHT22;1668;49.648;8.570;2023-08-08T11:04:46;20.30;99.90
3312;DHT22;1668;49.648;8.570;2023-08-08T11:07:15;20.30;60.50
3312;DHT22;1668;49.648;8.570;2023-08-08T11:09:42;20.50;99.90
3312;DHT22;1668;49.648;8.570;2023-08-08T11:12:14;20.50;99.90
3312;DHT22;1668;49.648;8.570;2023-08-08T11:14:41;20.60;99.90
3312;DHT22;1668;49.648;8.570;2023-08-08T11:17:10;20.60;99.90
3312;DHT22;1668;49.648;8.570;2023-08-08T11:19:39;20.70;99.90
3312;DHT22;1668;49.648;8.570;2023-08-08T11:22:09;20.80;1.00
3312;DHT22;1668;49.648;8.570;2023-08-08T11:24:38;20.80;1.00
3312;DHT22;1668;49.648;8.570;2023-08-08T11:27:05;20.90;1.00
3312;DHT22;1668;49.648;8.570;2023-08-08T11:29:32;21.00;1.00
3312;DHT22;1668;49.648;8.570;2023-08-08T11:32:00;21.00;1.00
3312;DHT22;1668;49.648;8.570;2023-08-08T11:34:30;21.00;99.90
3312;DHT22;1668;49.648;8.570;2023-08-08T11:36:59;20.90;1.00
3312;DHT22;1668;49.648;8.570;2023-08-08T11:39:29;21.00;99.90
3312;DHT22;1668;49.648;8.570;2023-08-08T11:41:57;21.10;99.90
3312;DHT22;1668;49.648;8.570;2023-08-08T11:44:24;21.10;99.90
3312;DHT22;1668;49.648;8.570;2023-08-08T11:46:51;21.10;1.00
3312;DHT22;1668;49.648;8.570;2023-08-08T11:49:18;21.20;99.90
3312;DHT22;1668;49.648;8.570;2023-08-08T11:51:45;21.20;99.90
3312;DHT22;1668;49.648;8.570;2023-08-08T11:54:13;21.20;1.00
3312;DHT22;1668;49.648;8.570;2023-08-08T11:56:40;21.20;99.90
3312;DHT22;1668;49.648;8.570;2023-08-08T11:59:10;21.20;99.90
3312;DHT22;1668;49.648;8.570;2023-08-08T12:01:38;21.30;99.90
3312;DHT22;1668;49.648;8.570;2023-08-08T12:04:06;21.30;99.90
3312;DHT22;1668;49.648;8.570;2023-08-08T12:06:37;21.30;99.90
3312;DHT22;1668;49.648;8.570;2023-08-08T12:09:04;21.40;99.90
3312;DHT22;1668;49.648;8.570;2023-08-08T12:11:34;21.50;99.90
3312;DHT22;1668;49.648;8.570;2023-08-08T12:14:01;21.50;1.00
3312;DHT22;1668;49.648;8.570;2023-08-08T12:16:30;21.50;1.00
3312;DHT22;1668;49.648;8.570;2023-08-08T12:18:57;21.60;1.00
3312;DHT22;1668;49.648;8.570;2023-08-08T12:21:24;21.70;99.90
3312;DHT22;1668;49.648;8.570;2023-08-08T12:23:51;21.70;1.00
3312;DHT22;1668;49.648;8.570;2023-08-08T12:26:18;21.80;99.90
3312;DHT22;1668;49.648;8.570;2023-08-08T12:28:45;21.70;99.90
3312;DHT22;1668;49.648;8.570;2023-08-08T12:31:12;21.70;99.90
3312;DHT22;1668;49.648;8.570;2023-08-08T12:33:40;21.80;99.90
3312;DHT22;1668;49.648;8.570;2023-08-08T12:36:07;21.90;1.00
3312;DHT22;1668;49.648;8.570;2023-08-08T12:38:34;21.90;1.00
3312;DHT22;1668;49.648;8.570;2023-08-08T12:41:01;21.90;99.90
3312;DHT22;1668;49.648;8.570;2023-08-08T12:43:28;21.90;1.00
3312;DHT22;1668;49.648;8.570;2023-08-08T12:45:55;22.00;1.00
3312;DHT22;1668;49.648;8.570;2023-08-08T12:48:22;22.10;99.90
3312;DHT22;1668;49.648;8.570;2023-08-08T12:50:50;22.20;99.90
3312;DHT22;1668;49.648;8.570;2023-08-08T12:53:17;22.20;96.40
3312;DHT22;1668;49.648;8.570;2023-08-08T12:55:44;22.30;99.90
3312;DHT22;1668;49.648;8.570;2023-08-08T12:58:11;22.50;1.00
3312;DHT22;1668;49.648;8.570;2023-08-08T13:00:37;22.60;99.90
3312;DHT22;1668;49.648;8.570;2023-08-08T13:03:04;22.70;1.00
3312;DHT22;1668;49.648;8.570;2023-08-08T13:05:31;22.70;99.90
3312;DHT22;1668;49.648;8.570;2023-08-08T13:08:00;22.60;99.90
3312;DHT22;1668;49.648;8.570;2023-08-08T13:10:26;22.60;99.90
3312;DHT22;1668;49.648;8.570;2023-08-08T13:12:54;22.40;99.90
3312;DHT22;1668;49.648;8.570;2023-08-08T13:15:22;22.40;99.90
3312;DHT22;1668;49.648;8.570;2023-08-08T13:17:48;22.40;99.90
3312;DHT22;1668;49.648;8.570;2023-08-08T13:20:15;22.40;1.00
3312;DHT22;1668;49.648;8.570;2023-08-08T13:22:42;22.40;1.00
3312;DHT22;1668;49.648;8.570;2023-08-08T13:25:10;22.40;99.90
3312;DHT22;1668;49.648;8.570;2023-08-08T13:27:37;22.30;99.90
3312;DHT22;1668;49.648;8.570;2023-08-08T13:30:05;22.20;99.90
3312;DHT22;1668;49.648;8.570;2023-08-08T13:32:32;22.20;55.40
3312;DHT22;1668;49.648;8.570;2023-08-08T13:34:59;22.20;1.00
3312;DHT22;1668;49.648;8.570;2023-08-08T13:37:26;22.20;1.00
3312;DHT22;1668;49.648;8.570;2023-08-08T13:39:53;22.20;1.00
3312;DHT22;1668;49.648;8.570;2023-08-08T13:42:21;22.20;1.00
3312;DHT22;1668;49.648;8.570;2023-08-08T13:44:48;22.20;1.00
3312;DHT22;1668;49.648;8.570;2023-08-08T13:47:15;22.20;1.00
3312;DHT22;1668;49.648;8.570;2023-08-08T13:49:42;22.30;99.90
3312;DHT22;1668;49.648;8.570;2023-08-08T13:52:09;22.20;82.70
3312;DHT22;1668;49.648;8.570;2023-08-08T17:54:44;19.70;1.00
3312;DHT22;1668;49.648;8.570;2023-08-08T17:57:10;19.70;1.00
3312;DHT22;1668;49.648;8.570;2023-08-08T17:59:37;19.70;99.90
3312;DHT22;1668;49.648;8.570;2023-08-08T18:02:04;19.60;1.00
3312;DHT22;1668;49.648;8.570;2023-08-08T18:04:31;19.60;99.90
3312;DHT22;1668;49.648;8.570;2023-08-08T18:06:57;19.60;1.00
3312;DHT22;1668;49.648;8.570;2023-08-08T18:09:24;19.60;1.00
3312;DHT22;1668;49.648;8.570;2023-08-08T18:11:54;19.60;1.00
3312;DHT22;1668;49.648;8.570;2023-08-08T18:14:21;19.50;1.00
3312;DHT22;1668;49.648;8.570;2023-08-08T18:16:48;19.50;1.00
3312;DHT22;1668;49.648;8.570;2023-08-08T18:19:16;19.50;1.00
3312;DHT22;1668;49.648;8.570;2023-08-08T18:21:44;19.50;1.00
3312;DHT22;1668;49.648;8.570;2023-08-08T18:24:11;19.50;99.90
3312;DHT22;1668;49.648;8.570;2023-08-08T18:26:38;19.50;99.90
3312;DHT22;1668;49.648;8.570;2023-08-08T18:29:06;19.50;99.90
3312;DHT22;1668;49.648;8.570;2023-08-08T18:31:33;19.40;1.00
3312;DHT22;1668;49.648;8.570;2023-08-08T18:34:01;19.40;99.90
3312;DHT22;1668;49.648;8.570;2023-08-08T18:36:28;19.40;1.00
3312;DHT22;1668;49.648;8.570;2023-08-08T18:38:55;19.40;99.90
3312;DHT22;1668;49.648;8.570;2023-08-08T18:41:22;19.30;1.00
3312;DHT22;1668;49.648;8.570;2023-08-08T18:43:49;19.30;1.00
3312;DHT22;1668;49.648;8.570;2023-08-08T18:46:17;19.30;1.00
3312;DHT22;1668;49.648;8.570;2023-08-08T18:48:44;19.30;1.00
3312;DHT22;1668;49.648;8.570;2023-08-08T18:51:11;19.30;99.90
3312;DHT22;1668;49.648;8.570;2023-08-08T18:53:38;19.20;1.00
3312;DHT22;1668;49.648;8.570;2023-08-08T18:56:05;19.20;99.90
3312;DHT22;1668;49.648;8.570;2023-08-08T18:58:32;19.20;99.90
3312;DHT22;1668;49.648;8.570;2023-08-08T19:00:59;19.20;99.90
3312;DHT22;1668;49.648;8.570;2023-08-08T19:03:33;19.10;99.90
3312;DHT22;1668;49.648;8.570;2023-08-08T19:06:03;19.10;99.90
3312;DHT22;1668;49.648;8.570;2023-08-08T19:08:30;19.10;1.00
3312;DHT22;1668;49.648;8.570;2023-08-08T19:10:57;19.10;99.90
3312;DHT22;1668;49.648;8.570;2023-08-08T19:13:24;19.10;68.60
3312;DHT22;1668;49.648;8.570;2023-08-08T19:15:51;19.00;99.90
3312;DHT22;1668;49.648;8.570;2023-08-08T19:18:18;19.00;99.90
3312;DHT22;1668;49.648;8.570;2023-08-08T19:20:46;19.00;99.90
3312;DHT22;1668;49.648;8.570;2023-08-08T19:23:13;19.00;59.50
3312;DHT22;1668;49.648;8.570;2023-08-08T19:25:41;19.00;88.20
3312;DHT22;1668;49.648;8.570;2023-08-08T19:28:08;19.00;1.00
3312;DHT22;1668;49.648;8.570;2023-08-08T19:30:35;18.90;1.00
3312;DHT22;1668;49.648;8.570;2023-08-08T19:33:02;18.90;54.20
3312;DHT22;1668;49.648;8.570;2023-08-08T19:35:30;18.90;99.90
3312;DHT22;1668;49.648;8.570;2023-08-08T19:37:58;18.90;70.70
3312;DHT22;1668;49.648;8.570;2023-08-08T19:40:25;18.90;99.90
3312;DHT22;1668;49.648;8.570;2023-08-08T19:42:52;18.90;99.90
3312;DHT22;1668;49.648;8.570;2023-08-08T19:45:20;18.90;99.90
3312;DHT22;1668;49.648;8.570;2023-08-08T19:47:46;18.90;99.90
3312;DHT22;1668;49.648;8.570;2023-08-08T19:50:13;18.80;99.90
3312;DHT22;1668;49.648;8.570;2023-08-08T19:52:40;18.80;99.90
3312;DHT22;1668;49.648;8.570;2023-08-08T19:55:09;18.80;1.00
3312;DHT22;1668;49.648;8.570;2023-08-08T19:57:36;18.80;99.90
3312;DHT22;1668;49.648;8.570;2023-08-08T20:00:03;18.80;1.00
3312;DHT22;1668;49.648;8.570;2023-08-08T20:02:31;18.70;99.90
3312;DHT22;1668;49.648;8.570;2023-08-08T20:04:58;18.70;99.90
3312;DHT22;1668;49.648;8.570;2023-08-08T20:07:25;18.60;1.00
3312;DHT22;1668;49.648;8.570;2023-08-08T20:09:52;18.60;99.90